createdAt,value
2023-05-05T00:01:25.549Z,100778.25
2023-05-05T00:04:27.942Z,100786.66
2023-05-05T00:07:29.877Z,100781.09
2023-05-05T00:10:32.480Z,100772.34
2023-05-05T00:13:34.436Z,100775.72
2023-05-05T00:16:36.706Z,100772.03
2023-05-05T00:19:38.668Z,100779.19
2023-05-05T00:22:40.908Z,100775.38
2023-05-05T00:25:42.984Z,100777.06
2023-05-05T00:28:45.281Z,100776.19
2023-05-05T00:31:47.254Z,100775.56
2023-05-05T00:34:49.510Z,100768.41
2023-05-05T00:37:51.525Z,100764.94
2023-05-05T00:40:53.805Z,100761.56
2023-05-05T00:43:55.789Z,100767.47
2023-05-05T00:46:58.046Z,100767.25
2023-05-05T00:50:00.209Z,100765.66
2023-05-05T00:53:03.374Z,100762.50
2023-05-05T00:56:05.567Z,100762.78
2023-05-05T00:59:07.837Z,100759.75
2023-05-05T01:02:10.544Z,100760.72
2023-05-05T01:05:14.321Z,100755.31
2023-05-05T01:08:24.125Z,100755.22
2023-05-05T01:11:31.083Z,100756.63
2023-05-05T01:14:40.878Z,100758.72
2023-05-05T01:17:50.985Z,100758.87
2023-05-05T01:21:07.120Z,100755.13
2023-05-05T01:24:31.527Z,100751.97
2023-05-05T01:27:52.553Z,100745.69
2023-05-05T01:30:54.729Z,100745.87
2023-05-05T01:34:01.823Z,100758.06
2023-05-05T01:37:04.629Z,100747.00
2023-05-05T01:40:09.555Z,100752.63
2023-05-05T01:43:13.533Z,100747.12
2023-05-05T01:46:16.134Z,100749.00
2023-05-05T01:49:18.540Z,100756.28
2023-05-05T01:52:21.672Z,100749.44
2023-05-05T01:55:25.508Z,100750.78
2023-05-05T01:58:29.209Z,100743.09
2023-05-05T02:01:31.842Z,100743.66
2023-05-05T02:04:35.881Z,100744.66
2023-05-05T02:07:38.186Z,100734.91
2023-05-05T02:10:40.852Z,100737.06
2023-05-05T02:13:43.828Z,100737.91
2023-05-05T02:16:50.982Z,100741.41
2023-05-05T02:19:53.109Z,100736.34
2023-05-05T02:22:55.346Z,100738.50
2023-05-05T02:26:08.166Z,100735.97
2023-05-05T02:29:14.920Z,100740.84
2023-05-05T02:32:20.762Z,100735.31
2023-05-05T02:35:27.046Z,100731.19
2023-05-05T02:38:30.405Z,100736.16
2023-05-05T02:41:36.251Z,100733.06
2023-05-05T02:44:41.308Z,100730.03
2023-05-05T02:47:44.109Z,100736.13
2023-05-05T02:50:46.245Z,100731.06
2023-05-05T02:53:48.836Z,100738.63
2023-05-05T02:56:51.256Z,100735.50
2023-05-05T02:59:58.401Z,100735.34
2023-05-05T03:03:19.621Z,100740.22
2023-05-05T03:06:24.807Z,100735.13
2023-05-05T03:09:33.175Z,100734.31
2023-05-05T03:12:40.308Z,100738.78
2023-05-05T03:15:46.731Z,100734.69
2023-05-05T03:18:51.035Z,100736.13
2023-05-05T03:21:54.012Z,100732.69
2023-05-05T03:24:56.295Z,100737.12
2023-05-05T03:27:58.553Z,100736.28
2023-05-05T03:31:01.215Z,100738.41
2023-05-05T03:34:03.408Z,100739.00
2023-05-05T03:37:06.883Z,100730.22
2023-05-05T03:40:09.529Z,100732.47
2023-05-05T03:43:12.038Z,100741.97
2023-05-05T03:46:14.971Z,100738.31
2023-05-05T03:49:18.070Z,100745.47
2023-05-05T03:52:22.900Z,100736.28
2023-05-05T03:55:25.791Z,100738.53
2023-05-05T03:58:27.746Z,100743.53
2023-05-05T04:01:31.408Z,100745.19
2023-05-05T04:04:35.113Z,100760.31
2023-05-05T04:07:37.429Z,100758.66
2023-05-05T04:10:39.824Z,100752.44
2023-05-05T04:13:42.139Z,100754.50
2023-05-05T04:16:44.935Z,100763.13
2023-05-05T04:19:47.351Z,100762.41
2023-05-05T04:22:52.766Z,100749.50
2023-05-05T04:25:55.743Z,100756.47
2023-05-05T04:28:59.004Z,100753.38
2023-05-05T04:32:01.166Z,100760.75
2023-05-05T04:35:04.358Z,100757.88
2023-05-05T04:38:10.168Z,100762.31
2023-05-05T04:41:13.767Z,100772.44
2023-05-05T04:44:16.283Z,100776.94
2023-05-05T04:47:18.990Z,100779.59
2023-05-05T04:50:21.242Z,100781.31
2023-05-05T04:53:24.086Z,100780.81
2023-05-05T04:56:26.429Z,100784.34
2023-05-05T04:59:30.105Z,100785.47
2023-05-05T05:02:34.434Z,100790.66
2023-05-05T05:05:37.697Z,100795.56
2023-05-05T05:08:39.846Z,100797.13
2023-05-05T05:11:44.971Z,100793.22
2023-05-05T05:14:47.312Z,100794.22
2023-05-05T05:17:51.084Z,100797.91
2023-05-05T05:20:53.423Z,100799.69
2023-05-05T05:23:56.659Z,100801.25
2023-05-05T05:26:59.820Z,100802.97
2023-05-05T05:30:03.404Z,100805.31
2023-05-05T05:33:06.797Z,100807.78
2023-05-05T05:36:09.861Z,100804.03
2023-05-05T05:39:13.560Z,100812.09
2023-05-05T05:42:16.998Z,100814.28
2023-05-05T05:45:20.073Z,100814.13
2023-05-05T05:48:28.513Z,100820.37
2023-05-05T05:51:32.469Z,100828.38
2023-05-05T05:54:36.807Z,100825.97
2023-05-05T05:57:40.517Z,100831.31
2023-05-05T06:00:43.482Z,100834.97
2023-05-05T06:03:46.053Z,100830.31
2023-05-05T06:06:48.618Z,100830.31
2023-05-05T06:09:51.162Z,100830.03
2023-05-05T06:12:53.402Z,100829.06
2023-05-05T06:15:55.893Z,100824.59
2023-05-05T06:18:58.354Z,100825.56
2023-05-05T06:22:00.647Z,100828.84
2023-05-05T06:25:02.607Z,100831.94
2023-05-05T06:28:05.742Z,100825.75
2023-05-05T06:31:08.033Z,100822.72
2023-05-05T06:34:10.336Z,100815.12
2023-05-05T06:37:12.264Z,100815.97
2023-05-05T06:40:14.606Z,100814.13
2023-05-05T06:43:17.248Z,100810.53
2023-05-05T06:46:20.194Z,100809.56
2023-05-05T06:49:22.192Z,100808.72
2023-05-05T06:52:24.522Z,100816.78
2023-05-05T06:55:26.569Z,100818.28
2023-05-05T06:58:28.945Z,100817.91
2023-05-05T07:01:31.895Z,100812.44
2023-05-05T07:04:34.271Z,100812.03
2023-05-05T07:07:38.725Z,100813.47
2023-05-05T07:10:41.734Z,100808.97
2023-05-05T07:13:43.768Z,100811.41
2023-05-05T07:16:46.421Z,100820.69
2023-05-05T07:19:48.646Z,100812.16
2023-05-05T07:22:50.882Z,100803.41
2023-05-05T07:25:52.926Z,100809.78
2023-05-05T07:28:57.231Z,100810.81
2023-05-05T07:31:59.323Z,100810.69
2023-05-05T07:35:01.596Z,100805.59
2023-05-05T07:38:03.914Z,100810.28
2023-05-05T07:41:06.456Z,100813.41
2023-05-05T07:44:08.531Z,100809.09
2023-05-05T07:47:10.896Z,100813.66
2023-05-05T07:50:13.254Z,100812.59
2023-05-05T07:53:15.567Z,100809.31
2023-05-05T07:56:18.936Z,100799.50
2023-05-05T07:59:24.045Z,100803.41
2023-05-05T08:02:26.305Z,100810.94
2023-05-05T08:05:28.643Z,100799.59
2023-05-05T08:08:30.737Z,100807.16
2023-05-05T08:11:33.127Z,100807.53
2023-05-05T08:14:36.209Z,100803.75
2023-05-05T08:17:51.523Z,100796.44
2023-05-05T08:20:56.706Z,100792.09
2023-05-05T08:24:00.308Z,100792.06
2023-05-05T08:27:03.708Z,100793.44
2023-05-05T08:30:06.875Z,100794.94
2023-05-05T08:33:08.979Z,100793.56
2023-05-05T08:36:13.738Z,100794.59
2023-05-05T08:39:16.539Z,100799.03
2023-05-05T08:42:32.708Z,100791.03
2023-05-05T08:45:40.788Z,100795.03
2023-05-05T08:48:43.973Z,100793.72
2023-05-05T08:51:46.834Z,100789.78
2023-05-05T08:54:57.845Z,100788.84
2023-05-05T08:58:04.188Z,100792.09
2023-05-05T09:01:10.113Z,100793.41
2023-05-05T09:04:12.342Z,100794.41
2023-05-05T09:07:14.972Z,100786.34
2023-05-05T09:10:17.635Z,100777.38
2023-05-05T09:13:20.388Z,100776.31
2023-05-05T09:16:22.708Z,100779.81
2023-05-05T09:19:27.312Z,100780.81
2023-05-05T09:22:47.362Z,100774.97
2023-05-05T09:26:04.477Z,100770.66
2023-05-05T09:29:10.778Z,100764.84
2023-05-05T09:32:13.383Z,100756.78
2023-05-05T09:35:17.068Z,100756.63
2023-05-05T09:38:20.696Z,100754.28
2023-05-05T09:41:36.610Z,100753.00
2023-05-05T09:44:40.720Z,100751.47
2023-05-05T09:47:42.974Z,100739.88
2023-05-05T09:50:45.731Z,100737.66
2023-05-05T09:53:48.257Z,100738.78
2023-05-05T09:56:51.400Z,100728.09
2023-05-05T09:59:58.873Z,100737.94
2023-05-05T10:03:04.892Z,100736.41
2023-05-05T10:06:07.956Z,100740.53
2023-05-05T10:09:10.632Z,100733.94
2023-05-05T10:12:13.813Z,100730.94
2023-05-05T10:15:16.632Z,100726.22
2023-05-05T10:18:21.800Z,100729.41
2023-05-05T10:21:25.581Z,100723.91
2023-05-05T10:24:39.714Z,100723.25
2023-05-05T10:27:45.991Z,100719.72
2023-05-05T10:30:51.230Z,100721.66
2023-05-05T10:34:18.167Z,100710.22
2023-05-05T10:37:21.215Z,100705.78
2023-05-05T10:40:23.692Z,100706.22
2023-05-05T10:43:27.556Z,100706.81
2023-05-05T10:46:29.666Z,100702.28
2023-05-05T10:49:37.605Z,100691.59
2023-05-05T10:52:39.727Z,100689.44
2023-05-05T10:56:03.346Z,100674.97
2023-05-05T10:59:25.199Z,100667.41
2023-05-05T11:02:28.383Z,100670.94
2023-05-05T11:05:31.024Z,100663.00
2023-05-05T11:08:34.453Z,100663.16
2023-05-05T11:12:15.977Z,100660.47
2023-05-05T11:15:27.832Z,100669.31
2023-05-05T11:18:36.180Z,100660.72
2023-05-05T11:22:00.477Z,100655.53
2023-05-05T11:25:22.812Z,100650.09
2023-05-05T11:28:28.513Z,100650.78
2023-05-05T11:31:31.213Z,100645.75
2023-05-05T11:34:33.467Z,100639.50
2023-05-05T11:37:37.116Z,100643.31
2023-05-05T11:40:42.490Z,100636.81
2023-05-05T11:43:44.597Z,100637.37
2023-05-05T11:46:52.921Z,100625.78
2023-05-05T11:49:55.730Z,100622.75
2023-05-05T11:52:58.588Z,100617.38
2023-05-05T11:56:07.536Z,100618.31
2023-05-05T11:59:10.788Z,100615.41
2023-05-05T12:02:16.042Z,100611.66
2023-05-05T12:05:21.229Z,100612.19
2023-05-05T12:08:24.366Z,100609.97
2023-05-05T12:11:26.950Z,100605.69
2023-05-05T12:14:28.911Z,100594.50
2023-05-05T12:17:39.064Z,100606.19
2023-05-05T12:20:41.726Z,100597.78
2023-05-05T12:23:44.229Z,100595.66
2023-05-05T12:26:46.395Z,100596.59
2023-05-05T12:29:49.256Z,100589.72
2023-05-05T12:33:00.226Z,100595.38
2023-05-05T12:36:02.933Z,100591.22
2023-05-05T12:39:05.408Z,100587.47
2023-05-05T12:42:07.769Z,100590.84
2023-05-05T12:45:17.637Z,100582.94
2023-05-05T12:48:22.979Z,100589.78
2023-05-05T12:51:24.992Z,100579.25
2023-05-05T12:54:30.039Z,100580.31
2023-05-05T12:57:32.125Z,100574.31
2023-05-05T13:00:34.421Z,100565.44
2023-05-05T13:03:36.616Z,100562.56
2023-05-05T13:06:40.417Z,100566.56
2023-05-05T13:09:42.718Z,100555.19
2023-05-05T13:12:44.989Z,100554.59
2023-05-05T13:15:47.088Z,100549.16
2023-05-05T13:18:49.924Z,100545.56
2023-05-05T13:21:52.540Z,100542.37
2023-05-05T13:24:54.814Z,100532.56
2023-05-05T13:27:56.854Z,100530.31
2023-05-05T13:30:59.101Z,100534.75
2023-05-05T13:34:01.122Z,100522.91
2023-05-05T13:37:03.405Z,100529.19
2023-05-05T13:40:06.230Z,100521.19
2023-05-05T13:43:08.452Z,100511.56
2023-05-05T13:46:19.801Z,100506.88
2023-05-05T13:49:22.749Z,100501.63
2023-05-05T13:52:24.769Z,100509.03
2023-05-05T13:55:28.133Z,100506.78
2023-05-05T13:58:30.371Z,100506.56
2023-05-05T14:01:32.742Z,100504.38
2023-05-05T14:04:35.040Z,100495.91
2023-05-05T14:07:37.028Z,100497.63
2023-05-05T14:10:40.389Z,100499.91
2023-05-05T14:13:43.414Z,100496.62
2023-05-05T14:16:47.854Z,100497.50
2023-05-05T14:19:51.508Z,100494.63
2023-05-05T14:22:54.569Z,100494.97
2023-05-05T14:25:56.670Z,100488.78
2023-05-05T14:28:58.923Z,100491.13
2023-05-05T14:32:00.949Z,100484.66
2023-05-05T14:35:03.328Z,100482.56
2023-05-05T14:38:05.657Z,100485.25
2023-05-05T14:41:08.073Z,100481.81
2023-05-05T14:44:10.017Z,100480.25
2023-05-05T14:47:12.355Z,100475.94
2023-05-05T14:50:14.361Z,100476.63
2023-05-05T14:53:16.892Z,100480.63
2023-05-05T14:56:21.771Z,100480.50
2023-05-05T14:59:24.098Z,100477.97
2023-05-05T15:02:26.183Z,100476.63
2023-05-05T15:05:28.416Z,100466.47
2023-05-05T15:08:30.412Z,100467.09
2023-05-05T15:11:32.605Z,100473.41
2023-05-05T15:14:36.426Z,100467.06
2023-05-05T15:17:38.961Z,100471.09
2023-05-05T15:20:41.014Z,100466.75
2023-05-05T15:23:43.269Z,100463.22
2023-05-05T15:26:45.232Z,100468.06
2023-05-05T15:29:48.459Z,100473.06
2023-05-05T15:32:50.477Z,100464.72
2023-05-05T15:35:52.765Z,100459.56
2023-05-05T15:38:54.707Z,100458.41
2023-05-05T15:41:56.923Z,100454.44
2023-05-05T15:44:59.372Z,100452.59
2023-05-05T15:48:01.702Z,100451.56
2023-05-05T15:51:03.689Z,100455.56
2023-05-05T15:54:05.983Z,100452.41
2023-05-05T15:57:08.209Z,100450.41
2023-05-05T16:00:10.656Z,100443.75
2023-05-05T16:03:12.981Z,100449.44
2023-05-05T16:06:17.704Z,100446.56
2023-05-05T16:09:19.976Z,100448.41
2023-05-05T16:12:22.099Z,100439.41
2023-05-05T16:15:24.343Z,100441.44
2023-05-05T16:18:26.737Z,100435.41
2023-05-05T16:21:29.029Z,100437.94
2023-05-05T16:24:30.984Z,100434.25
2023-05-05T16:27:33.241Z,100432.75
2023-05-05T16:30:35.655Z,100434.09
2023-05-05T16:33:43.452Z,100426.72
2023-05-05T16:36:45.514Z,100429.56
2023-05-05T16:39:47.747Z,100433.72
2023-05-05T16:42:49.668Z,100433.69
2023-05-05T16:45:51.936Z,100433.31
2023-05-05T16:48:53.987Z,100426.97
2023-05-05T16:51:57.234Z,100426.87
2023-05-05T16:54:59.163Z,100433.87
2023-05-05T16:58:01.505Z,100427.16
2023-05-05T17:01:04.087Z,100427.44
2023-05-05T17:04:06.381Z,100435.03
2023-05-05T17:07:08.354Z,100431.25
2023-05-05T17:10:10.799Z,100434.16
2023-05-05T17:13:13.546Z,100429.97
2023-05-05T17:16:15.890Z,100426.25
2023-05-05T17:19:17.928Z,100428.53
2023-05-05T17:22:20.223Z,100422.31
2023-05-05T17:25:22.325Z,100425.06
2023-05-05T17:28:24.597Z,100428.66
2023-05-05T17:31:26.554Z,100428.59
2023-05-05T17:34:28.818Z,100433.16
2023-05-05T17:37:31.194Z,100424.22
2023-05-05T17:40:33.421Z,100433.94
2023-05-05T17:43:35.367Z,100427.88
2023-05-05T17:46:38.166Z,100439.16
2023-05-05T17:49:40.093Z,100442.84
2023-05-05T17:52:43.803Z,100429.09
2023-05-05T17:55:46.028Z,100436.81
2023-05-05T17:58:48.862Z,100432.50
2023-05-05T18:01:50.872Z,100437.56
2023-05-05T18:04:53.364Z,100435.06
2023-05-05T18:07:55.278Z,100441.66
2023-05-05T18:10:57.629Z,100439.72
2023-05-05T18:13:59.572Z,100440.56
2023-05-05T18:17:01.770Z,100444.25
2023-05-05T18:20:06.644Z,100447.06
2023-05-05T18:23:08.894Z,100448.19
2023-05-05T18:26:10.879Z,100449.19
2023-05-05T18:29:15.885Z,100455.91
2023-05-05T18:32:17.901Z,100451.72
2023-05-05T18:35:20.177Z,100450.44
2023-05-05T18:38:22.256Z,100453.91
2023-05-05T18:41:24.551Z,100451.50
2023-05-05T18:44:26.750Z,100454.16
2023-05-05T18:47:29.293Z,100457.53
2023-05-05T18:50:33.122Z,100458.91
2023-05-05T18:53:35.807Z,100467.41
2023-05-05T18:56:37.772Z,100468.13
2023-05-05T18:59:40.029Z,100470.91
2023-05-05T19:02:42.047Z,100473.00
2023-05-05T19:05:44.342Z,100480.38
2023-05-05T19:08:46.589Z,100474.09
2023-05-05T19:11:49.852Z,100480.31
2023-05-05T19:14:51.760Z,100482.94
2023-05-05T19:17:54.445Z,100477.87
2023-05-05T19:20:56.420Z,100482.88
2023-05-05T19:23:58.690Z,100479.38
2023-05-05T19:27:02.075Z,100474.91
2023-05-05T19:30:04.903Z,100475.28
2023-05-05T19:33:06.928Z,100473.72
2023-05-05T19:36:09.161Z,100467.97
2023-05-05T19:39:12.568Z,100475.25
2023-05-05T19:42:16.376Z,100468.34
2023-05-05T19:45:18.355Z,100464.81
2023-05-05T19:48:20.837Z,100480.00
2023-05-05T19:51:22.911Z,100480.78
2023-05-05T19:54:25.621Z,100481.09
2023-05-05T19:57:27.678Z,100476.34
2023-05-05T20:00:29.936Z,100471.63
2023-05-05T20:03:32.248Z,100473.56
2023-05-05T20:06:35.075Z,100475.38
2023-05-05T20:09:37.775Z,100469.09
2023-05-05T20:12:42.250Z,100465.88
2023-05-05T20:15:47.887Z,100471.22
2023-05-05T20:18:50.248Z,100474.59
2023-05-05T20:21:52.477Z,100473.72
2023-05-05T20:24:54.491Z,100465.53
2023-05-05T20:27:56.776Z,100464.66
2023-05-05T20:31:00.525Z,100472.84
2023-05-05T20:34:02.880Z,100466.72
2023-05-05T20:37:04.968Z,100460.59
2023-05-05T20:40:07.943Z,100470.06
2023-05-05T20:43:10.217Z,100454.81
2023-05-05T20:46:13.438Z,100458.06
2023-05-05T20:49:15.536Z,100456.66
2023-05-05T20:52:17.878Z,100459.53
2023-05-05T20:55:19.852Z,100467.59
2023-05-05T20:58:22.085Z,100462.19
2023-05-05T21:01:24.163Z,100474.53
2023-05-05T21:04:26.911Z,100460.13
2023-05-05T21:07:31.136Z,100469.62
2023-05-05T21:10:33.746Z,100455.09
2023-05-05T21:13:36.226Z,100463.03
2023-05-05T21:16:38.533Z,100460.13
2023-05-05T21:19:41.155Z,100459.34
2023-05-05T21:22:43.469Z,100452.25
2023-05-05T21:25:45.437Z,100454.63
2023-05-05T21:28:47.631Z,100449.34
2023-05-05T21:31:49.570Z,100450.31
2023-05-05T21:34:51.831Z,100451.28
2023-05-05T21:37:53.799Z,100451.19
2023-05-05T21:40:59.222Z,100449.59
2023-05-05T21:44:01.227Z,100446.91
2023-05-05T21:47:05.338Z,100440.84
2023-05-05T21:50:07.836Z,100436.16
2023-05-05T21:53:10.356Z,100429.22
2023-05-05T21:56:12.251Z,100422.16
2023-05-05T21:59:16.485Z,100422.25
2023-05-05T22:02:19.122Z,100418.78
2023-05-05T22:05:21.658Z,100418.91
2023-05-05T22:08:23.638Z,100422.22
2023-05-05T22:11:25.954Z,100423.47
2023-05-05T22:14:27.914Z,100428.53
2023-05-05T22:17:30.267Z,100420.03
2023-05-05T22:20:32.216Z,100428.22
2023-05-05T22:23:34.492Z,100430.91
2023-05-05T22:26:36.512Z,100434.94
2023-05-05T22:29:38.906Z,100432.59
2023-05-05T22:32:43.348Z,100428.47
2023-05-05T22:35:45.869Z,100436.81
2023-05-05T22:38:47.773Z,100438.44
2023-05-05T22:41:50.006Z,100449.19
2023-05-05T22:44:52.858Z,100448.44
2023-05-05T22:47:55.442Z,100445.97
2023-05-05T22:50:57.488Z,100449.28
2023-05-05T22:53:59.736Z,100453.34
2023-05-05T22:57:02.306Z,100447.03
2023-05-05T23:00:08.696Z,100452.03
2023-05-05T23:03:10.953Z,100449.31
2023-05-05T23:06:13.186Z,100455.34
2023-05-05T23:09:15.133Z,100453.38
2023-05-05T23:12:17.701Z,100443.06
2023-05-05T23:15:19.645Z,100437.56
2023-05-05T23:18:21.835Z,100431.19
2023-05-05T23:21:23.877Z,100446.41
2023-05-05T23:24:26.567Z,100444.72
2023-05-05T23:27:28.515Z,100432.63
2023-05-05T23:30:30.799Z,100436.22
2023-05-05T23:33:32.831Z,100430.41
2023-05-05T23:36:35.060Z,100429.06
2023-05-05T23:39:37.070Z,100433.47
2023-05-05T23:42:39.332Z,100435.69
2023-05-05T23:45:41.258Z,100432.97
2023-05-05T23:48:43.471Z,100418.56
2023-05-05T23:51:45.440Z,100432.56
2023-05-05T23:54:47.721Z,100436.75
2023-05-05T23:57:51.561Z,100440.41
